sensor_id;sensor_type;location;lat;lon;timestamp;P1;durP1;ratioP1;P2;durP2;ratioP2
5379;SDS011;2713;42.680;23.310;2022-12-20T00:01:48;12.18;;;8.45;;
5379;SDS011;2713;42.680;23.310;2022-12-20T00:04:15;16.23;;;9.30;;
5379;SDS011;2713;42.680;23.310;2022-12-20T00:06:42;11.27;;;7.90;;
5379;SDS011;2713;42.680;23.310;2022-12-20T00:09:11;13.52;;;8.40;;
5379;SDS011;2713;42.680;23.310;2022-12-20T00:11:38;13.55;;;8.65;;
5379;SDS011;2713;42.680;23.310;2022-12-20T00:14:06;14.25;;;9.10;;
5379;SDS011;2713;42.680;23.310;2022-12-20T00:16:34;11.80;;;7.68;;
5379;SDS011;2713;42.680;23.310;2022-12-20T00:19:02;13.65;;;8.57;;
5379;SDS011;2713;42.680;23.310;2022-12-20T00:21:31;12.48;;;7.70;;
5379;SDS011;2713;42.680;23.310;2022-12-20T00:23:59;9.75;;;7.35;;
5379;SDS011;2713;42.680;23.310;2022-12-20T00:26:28;12.05;;;8.18;;
5379;SDS011;2713;42.680;23.310;2022-12-20T00:28:57;9.95;;;6.88;;
5379;SDS011;2713;42.680;23.310;2022-12-20T00:31:25;12.65;;;8.15;;
5379;SDS011;2713;42.680;23.310;2022-12-20T00:33:53;9.35;;;7.70;;
5379;SDS011;2713;42.680;23.310;2022-12-20T00:36:22;11.07;;;7.05;;
5379;SDS011;2713;42.680;23.310;2022-12-20T00:38:51;12.98;;;8.30;;
5379;SDS011;2713;42.680;23.310;2022-12-20T00:41:20;10.02;;;7.28;;
5379;SDS011;2713;42.680;23.310;2022-12-20T00:43:50;9.40;;;7.15;;
5379;SDS011;2713;42.680;23.310;2022-12-20T00:46:18;10.43;;;7.50;;
5379;SDS011;2713;42.680;23.310;2022-12-20T00:48:47;11.38;;;7.07;;
5379;SDS011;2713;42.680;23.310;2022-12-20T00:51:19;11.02;;;7.35;;
5379;SDS011;2713;42.680;23.310;2022-12-20T00:53:47;12.13;;;7.53;;
5379;SDS011;2713;42.680;23.310;2022-12-20T00:56:15;10.93;;;6.93;;
5379;SDS011;2713;42.680;23.310;2022-12-20T00:58:43;9.27;;;6.78;;
5379;SDS011;2713;42.680;23.310;2022-12-20T01:01:15;10.93;;;6.80;;
5379;SDS011;2713;42.680;23.310;2022-12-20T01:03:46;9.32;;;6.85;;
5379;SDS011;2713;42.680;23.310;2022-12-20T01:06:13;8.68;;;6.75;;
5379;SDS011;2713;42.680;23.310;2022-12-20T01:08:40;10.00;;;7.00;;
5379;SDS011;2713;42.680;23.310;2022-12-20T01:11:08;10.60;;;6.75;;
5379;SDS011;2713;42.680;23.310;2022-12-20T01:13:40;10.52;;;6.55;;
5379;SDS011;2713;42.680;23.310;2022-12-20T01:16:09;9.90;;;6.57;;
5379;SDS011;2713;42.680;23.310;2022-12-20T01:18:39;8.23;;;5.65;;
5379;SDS011;2713;42.680;23.310;2022-12-20T01:21:07;14.18;;;7.10;;
5379;SDS011;2713;42.680;23.310;2022-12-20T01:23:35;8.13;;;5.75;;
5379;SDS011;2713;42.680;23.310;2022-12-20T01:26:03;8.68;;;6.75;;
5379;SDS011;2713;42.680;23.310;2022-12-20T01:28:33;12.55;;;6.97;;
5379;SDS011;2713;42.680;23.310;2022-12-20T01:31:01;9.40;;;6.00;;
5379;SDS011;2713;42.680;23.310;2022-12-20T01:33:30;8.85;;;6.22;;
5379;SDS011;2713;42.680;23.310;2022-12-20T01:36:01;10.75;;;6.65;;
5379;SDS011;2713;42.680;23.310;2022-12-20T01:38:30;9.65;;;6.05;;
5379;SDS011;2713;42.680;23.310;2022-12-20T01:40:57;9.13;;;7.05;;
5379;SDS011;2713;42.680;23.310;2022-12-20T01:43:25;7.70;;;6.18;;
5379;SDS011;2713;42.680;23.310;2022-12-20T01:46:11;7.15;;;5.57;;
5379;SDS011;2713;42.680;23.310;2022-12-20T01:48:38;7.72;;;6.20;;
5379;SDS011;2713;42.680;23.310;2022-12-20T01:51:09;8.20;;;6.10;;
5379;SDS011;2713;42.680;23.310;2022-12-20T01:53:36;9.65;;;6.20;;
5379;SDS011;2713;42.680;23.310;2022-12-20T01:56:04;7.75;;;5.88;;
5379;SDS011;2713;42.680;23.310;2022-12-20T01:58:33;6.70;;;5.90;;
5379;SDS011;2713;42.680;23.310;2022-12-20T02:01:02;9.43;;;6.50;;
5379;SDS011;2713;42.680;23.310;2022-12-20T02:03:29;7.43;;;5.30;;
5379;SDS011;2713;42.680;23.310;2022-12-20T02:05:57;8.20;;;6.40;;
5379;SDS011;2713;42.680;23.310;2022-12-20T02:08:41;8.70;;;5.78;;
5379;SDS011;2713;42.680;23.310;2022-12-20T02:11:12;8.88;;;6.35;;
5379;SDS011;2713;42.680;23.310;2022-12-20T02:13:52;10.32;;;6.70;;
5379;SDS011;2713;42.680;23.310;2022-12-20T02:16:25;7.03;;;6.25;;
5379;SDS011;2713;42.680;23.310;2022-12-20T02:18:57;8.38;;;6.00;;
5379;SDS011;2713;42.680;23.310;2022-12-20T02:21:31;8.80;;;6.10;;
5379;SDS011;2713;42.680;23.310;2022-12-20T02:24:09;9.82;;;6.03;;
5379;SDS011;2713;42.680;23.310;2022-12-20T02:27:13;6.78;;;5.65;;
5379;SDS011;2713;42.680;23.310;2022-12-20T02:30:02;10.30;;;6.60;;
5379;SDS011;2713;42.680;23.310;2022-12-20T02:32:32;8.70;;;6.55;;
5379;SDS011;2713;42.680;23.310;2022-12-20T02:35:03;7.22;;;6.20;;
5379;SDS011;2713;42.680;23.310;2022-12-20T02:37:32;8.38;;;6.35;;
5379;SDS011;2713;42.680;23.310;2022-12-20T02:39:59;7.10;;;5.78;;
5379;SDS011;2713;42.680;23.310;2022-12-20T02:42:29;9.43;;;6.78;;
5379;SDS011;2713;42.680;23.310;2022-12-20T02:44:59;10.07;;;6.80;;
5379;SDS011;2713;42.680;23.310;2022-12-20T02:47:44;7.00;;;6.00;;
5379;SDS011;2713;42.680;23.310;2022-12-20T02:50:16;10.05;;;6.60;;
5379;SDS011;2713;42.680;23.310;2022-12-20T02:52:47;7.60;;;5.80;;
5379;SDS011;2713;42.680;23.310;2022-12-20T02:55:15;8.07;;;6.53;;
5379;SDS011;2713;42.680;23.310;2022-12-20T02:57:44;11.55;;;6.75;;
5379;SDS011;2713;42.680;23.310;2022-12-20T03:00:17;10.52;;;6.70;;
5379;SDS011;2713;42.680;23.310;2022-12-20T03:02:46;9.73;;;6.30;;
5379;SDS011;2713;42.680;23.310;2022-12-20T03:05:32;10.00;;;7.07;;
5379;SDS011;2713;42.680;23.310;2022-12-20T03:08:01;8.88;;;6.03;;
5379;SDS011;2713;42.680;23.310;2022-12-20T03:10:28;8.80;;;6.05;;
5379;SDS011;2713;42.680;23.310;2022-12-20T03:12:55;10.50;;;6.43;;
5379;SDS011;2713;42.680;23.310;2022-12-20T03:15:24;8.63;;;5.93;;
5379;SDS011;2713;42.680;23.310;2022-12-20T03:17:53;7.93;;;6.68;;
5379;SDS011;2713;42.680;23.310;2022-12-20T03:20:21;8.77;;;6.68;;
5379;SDS011;2713;42.680;23.310;2022-12-20T03:22:48;10.30;;;7.05;;
5379;SDS011;2713;42.680;23.310;2022-12-20T03:25:15;11.50;;;7.05;;
5379;SDS011;2713;42.680;23.310;2022-12-20T03:27:42;10.13;;;8.10;;
5379;SDS011;2713;42.680;23.310;2022-12-20T03:30:09;9.13;;;7.10;;
5379;SDS011;2713;42.680;23.310;2022-12-20T03:32:38;11.43;;;8.02;;
5379;SDS011;2713;42.680;23.310;2022-12-20T03:35:07;9.77;;;6.65;;
5379;SDS011;2713;42.680;23.310;2022-12-20T03:37:37;12.93;;;7.75;;
5379;SDS011;2713;42.680;23.310;2022-12-20T03:40:05;9.60;;;7.35;;
5379;SDS011;2713;42.680;23.310;2022-12-20T03:42:33;12.10;;;8.13;;
5379;SDS011;2713;42.680;23.310;2022-12-20T03:45:01;12.85;;;7.43;;
5379;SDS011;2713;42.680;23.310;2022-12-20T03:47:29;9.18;;;7.30;;
5379;SDS011;2713;42.680;23.310;2022-12-20T03:49:57;11.48;;;7.30;;
5379;SDS011;2713;42.680;23.310;2022-12-20T03:52:25;10.70;;;6.97;;
5379;SDS011;2713;42.680;23.310;2022-12-20T03:54:52;13.23;;;8.20;;
5379;SDS011;2713;42.680;23.310;2022-12-20T03:57:22;12.98;;;7.50;;
5379;SDS011;2713;42.680;23.310;2022-12-20T03:59:50;12.25;;;7.53;;
5379;SDS011;2713;42.680;23.310;2022-12-20T04:02:19;9.10;;;7.72;;
5379;SDS011;2713;42.680;23.310;2022-12-20T04:04:46;10.05;;;7.47;;
5379;SDS011;2713;42.680;23.310;2022-12-20T04:07:15;10.95;;;7.60;;
5379;SDS011;2713;42.680;23.310;2022-12-20T04:09:44;13.55;;;8.52;;
5379;SDS011;2713;42.680;23.310;2022-12-20T04:12:13;11.48;;;7.85;;
5379;SDS011;2713;42.680;23.310;2022-12-20T04:14:40;11.77;;;8.18;;
5379;SDS011;2713;42.680;23.310;2022-12-20T04:17:06;9.60;;;7.18;;
5379;SDS011;2713;42.680;23.310;2022-12-20T04:19:34;10.88;;;8.25;;
5379;SDS011;2713;42.680;23.310;2022-12-20T04:22:02;15.60;;;8.90;;
5379;SDS011;2713;42.680;23.310;2022-12-20T04:24:38;10.23;;;7.55;;
5379;SDS011;2713;42.680;23.310;2022-12-20T04:27:22;12.63;;;8.35;;
5379;SDS011;2713;42.680;23.310;2022-12-20T04:29:51;10.48;;;8.27;;
5379;SDS011;2713;42.680;23.310;2022-12-20T04:32:19;13.40;;;8.65;;
5379;SDS011;2713;42.680;23.310;2022-12-20T04:34:49;9.57;;;8.30;;
5379;SDS011;2713;42.680;23.310;2022-12-20T04:37:16;14.75;;;8.75;;
5379;SDS011;2713;42.680;23.310;2022-12-20T04:39:50;10.40;;;7.55;;
5379;SDS011;2713;42.680;23.310;2022-12-20T04:42:28;10.20;;;8.00;;
5379;SDS011;2713;42.680;23.310;2022-12-20T04:44:55;12.27;;;8.40;;
5379;SDS011;2713;42.680;23.310;2022-12-20T04:47:25;10.85;;;8.38;;
5379;SDS011;2713;42.680;23.310;2022-12-20T04:49:53;12.10;;;8.30;;
5379;SDS011;2713;42.680;23.310;2022-12-20T04:52:20;10.00;;;7.65;;
5379;SDS011;2713;42.680;23.310;2022-12-20T04:55:06;10.55;;;7.88;;
5379;SDS011;2713;42.680;23.310;2022-12-20T04:57:34;11.38;;;8.25;;
5379;SDS011;2713;42.680;23.310;2022-12-20T05:00:03;11.52;;;9.18;;
5379;SDS011;2713;42.680;23.310;2022-12-20T05:02:31;10.85;;;8.52;;
5379;SDS011;2713;42.680;23.310;2022-12-20T05:05:03;12.43;;;8.30;;
5379;SDS011;2713;42.680;23.310;2022-12-20T05:07:36;14.90;;;8.00;;
5379;SDS011;2713;42.680;23.310;2022-12-20T05:10:04;13.32;;;8.60;;
5379;SDS011;2713;42.680;23.310;2022-12-20T05:12:33;14.82;;;10.00;;
5379;SDS011;2713;42.680;23.310;2022-12-20T05:15:02;14.02;;;8.82;;
5379;SDS011;2713;42.680;23.310;2022-12-20T05:17:29;11.45;;;8.70;;
5379;SDS011;2713;42.680;23.310;2022-12-20T05:19:56;15.65;;;9.48;;
5379;SDS011;2713;42.680;23.310;2022-12-20T05:22:23;15.30;;;9.20;;
5379;SDS011;2713;42.680;23.310;2022-12-20T05:25:11;11.63;;;8.75;;
5379;SDS011;2713;42.680;23.310;2022-12-20T05:28:00;13.75;;;9.60;;
5379;SDS011;2713;42.680;23.310;2022-12-20T05:30:31;16.35;;;10.15;;
5379;SDS011;2713;42.680;23.310;2022-12-20T05:32:58;14.02;;;10.02;;
5379;SDS011;2713;42.680;23.310;2022-12-20T05:35:26;15.50;;;9.02;;
5379;SDS011;2713;42.680;23.310;2022-12-20T05:37:59;11.48;;;8.95;;
5379;SDS011;2713;42.680;23.310;2022-12-20T05:40:28;16.45;;;9.77;;
5379;SDS011;2713;42.680;23.310;2022-12-20T05:42:54;14.65;;;9.15;;
5379;SDS011;2713;42.680;23.310;2022-12-20T05:45:29;12.88;;;9.35;;
5379;SDS011;2713;42.680;23.310;2022-12-20T05:48:01;11.90;;;9.40;;
5379;SDS011;2713;42.680;23.310;2022-12-20T05:50:30;15.18;;;10.82;;
5379;SDS011;2713;42.680;23.310;2022-12-20T05:53:20;14.70;;;10.35;;
5379;SDS011;2713;42.680;23.310;2022-12-20T05:55:52;16.17;;;9.70;;
5379;SDS011;2713;42.680;23.310;2022-12-20T05:58:24;14.25;;;9.70;;
5379;SDS011;2713;42.680;23.310;2022-12-20T06:00:56;10.82;;;9.27;;
5379;SDS011;2713;42.680;23.310;2022-12-20T06:03:26;14.55;;;10.18;;
5379;SDS011;2713;42.680;23.310;2022-12-20T06:05:54;14.85;;;9.82;;
5379;SDS011;2713;42.680;23.310;2022-12-20T06:08:25;12.00;;;9.15;;
5379;SDS011;2713;42.680;23.310;2022-12-20T06:10:55;14.73;;;10.30;;
5379;SDS011;2713;42.680;23.310;2022-12-20T06:13:22;14.27;;;9.20;;
5379;SDS011;2713;42.680;23.310;2022-12-20T06:15:52;14.90;;;9.45;;
5379;SDS011;2713;42.680;23.310;2022-12-20T06:18:19;13.57;;;9.05;;
5379;SDS011;2713;42.680;23.310;2022-12-20T06:20:49;16.52;;;9.82;;
5379;SDS011;2713;42.680;23.310;2022-12-20T06:23:20;12.68;;;8.93;;
5379;SDS011;2713;42.680;23.310;2022-12-20T06:26:15;13.35;;;9.05;;
5379;SDS011;2713;42.680;23.310;2022-12-20T06:28:47;14.98;;;9.43;;
5379;SDS011;2713;42.680;23.310;2022-12-20T06:31:21;14.10;;;9.52;;
5379;SDS011;2713;42.680;23.310;2022-12-20T06:33:51;13.60;;;9.10;;
5379;SDS011;2713;42.680;23.310;2022-12-20T06:36:20;14.80;;;11.10;;
5379;SDS011;2713;42.680;23.310;2022-12-20T06:38:47;13.15;;;9.63;;
5379;SDS011;2713;42.680;23.310;2022-12-20T06:41:15;23.15;;;11.43;;
5379;SDS011;2713;42.680;23.310;2022-12-20T06:43:42;15.05;;;10.18;;
5379;SDS011;2713;42.680;23.310;2022-12-20T06:46:09;14.23;;;9.30;;
5379;SDS011;2713;42.680;23.310;2022-12-20T06:48:36;12.85;;;9.50;;
5379;SDS011;2713;42.680;23.310;2022-12-20T06:51:05;13.13;;;9.45;;
5379;SDS011;2713;42.680;23.310;2022-12-20T06:53:32;14.75;;;9.30;;
5379;SDS011;2713;42.680;23.310;2022-12-20T06:55:59;22.90;;;9.73;;
5379;SDS011;2713;42.680;23.310;2022-12-20T06:58:27;15.38;;;10.45;;
5379;SDS011;2713;42.680;23.310;2022-12-20T07:00:54;11.60;;;9.25;;
5379;SDS011;2713;42.680;23.310;2022-12-20T07:03:21;14.82;;;10.38;;
5379;SDS011;2713;42.680;23.310;2022-12-20T07:05:50;13.32;;;9.23;;
5379;SDS011;2713;42.680;23.310;2022-12-20T07:08:18;13.80;;;9.63;;
5379;SDS011;2713;42.680;23.310;2022-12-20T07:10:45;12.77;;;9.52;;
5379;SDS011;2713;42.680;23.310;2022-12-20T07:13:11;15.43;;;9.20;;
5379;SDS011;2713;42.680;23.310;2022-12-20T07:15:40;12.25;;;9.32;;
5379;SDS011;2713;42.680;23.310;2022-12-20T07:18:07;15.07;;;9.73;;
5379;SDS011;2713;42.680;23.310;2022-12-20T07:20:33;15.02;;;9.65;;
5379;SDS011;2713;42.680;23.310;2022-12-20T07:23:01;14.77;;;9.18;;
5379;SDS011;2713;42.680;23.310;2022-12-20T07:25:28;13.43;;;9.73;;
5379;SDS011;2713;42.680;23.310;2022-12-20T07:27:55;9.77;;;8.10;;
5379;SDS011;2713;42.680;23.310;2022-12-20T07:30:21;9.95;;;7.90;;
5379;SDS011;2713;42.680;23.310;2022-12-20T07:32:50;14.48;;;8.88;;
5379;SDS011;2713;42.680;23.310;2022-12-20T07:35:17;14.90;;;9.00;;
5379;SDS011;2713;42.680;23.310;2022-12-20T07:37:43;13.85;;;9.05;;
5379;SDS011;2713;42.680;23.310;2022-12-20T07:40:10;14.73;;;9.55;;
5379;SDS011;2713;42.680;23.310;2022-12-20T07:42:38;18.17;;;9.55;;
5379;SDS011;2713;42.680;23.310;2022-12-20T07:45:06;12.30;;;9.35;;
5379;SDS011;2713;42.680;23.310;2022-12-20T07:47:33;19.88;;;10.80;;
5379;SDS011;2713;42.680;23.310;2022-12-20T07:50:02;15.77;;;12.05;;
5379;SDS011;2713;42.680;23.310;2022-12-20T07:52:29;15.90;;;10.13;;
5379;SDS011;2713;42.680;23.310;2022-12-20T07:55:00;13.32;;;8.85;;
5379;SDS011;2713;42.680;23.310;2022-12-20T07:57:31;15.52;;;8.95;;
5379;SDS011;2713;42.680;23.310;2022-12-20T08:00:02;13.60;;;9.02;;
5379;SDS011;2713;42.680;23.310;2022-12-20T08:02:37;16.13;;;10.35;;
5379;SDS011;2713;42.680;23.310;2022-12-20T08:05:09;15.25;;;9.25;;
5379;SDS011;2713;42.680;23.310;2022-12-20T08:07:37;15.00;;;9.48;;
5379;SDS011;2713;42.680;23.310;2022-12-20T08:10:06;12.77;;;8.90;;
5379;SDS011;2713;42.680;23.310;2022-12-20T08:12:36;15.52;;;9.57;;
5379;SDS011;2713;42.680;23.310;2022-12-20T08:15:05;16.48;;;10.90;;
5379;SDS011;2713;42.680;23.310;2022-12-20T08:17:32;19.95;;;11.63;;
5379;SDS011;2713;42.680;23.310;2022-12-20T08:19:59;16.27;;;9.18;;
5379;SDS011;2713;42.680;23.310;2022-12-20T08:22:27;13.63;;;9.73;;
5379;SDS011;2713;42.680;23.310;2022-12-20T08:24:54;12.95;;;8.95;;
5379;SDS011;2713;42.680;23.310;2022-12-20T08:27:21;12.90;;;9.07;;
5379;SDS011;2713;42.680;23.310;2022-12-20T08:29:48;14.05;;;9.25;;
5379;SDS011;2713;42.680;23.310;2022-12-20T08:32:15;11.57;;;8.18;;
5379;SDS011;2713;42.680;23.310;2022-12-20T08:34:41;11.50;;;8.68;;
5379;SDS011;2713;42.680;23.310;2022-12-20T08:37:08;13.77;;;9.15;;
5379;SDS011;2713;42.680;23.310;2022-12-20T08:39:37;12.10;;;8.48;;
5379;SDS011;2713;42.680;23.310;2022-12-20T08:42:04;12.30;;;8.80;;
5379;SDS011;2713;42.680;23.310;2022-12-20T08:44:31;9.57;;;7.90;;
5379;SDS011;2713;42.680;23.310;2022-12-20T08:46:57;12.38;;;8.73;;
5379;SDS011;2713;42.680;23.310;2022-12-20T08:49:24;10.48;;;7.93;;
5379;SDS011;2713;42.680;23.310;2022-12-20T08:51:51;10.73;;;8.20;;
5379;SDS011;2713;42.680;23.310;2022-12-20T08:54:18;14.48;;;7.40;;
5379;SDS011;2713;42.680;23.310;2022-12-20T08:56:46;12.23;;;8.15;;
5379;SDS011;2713;42.680;23.310;2022-12-20T08:59:13;17.45;;;8.75;;
5379;SDS011;2713;42.680;23.310;2022-12-20T09:01:40;12.45;;;8.80;;
5379;SDS011;2713;42.680;23.310;2022-12-20T09:04:08;12.50;;;7.65;;
5379;SDS011;2713;42.680;23.310;2022-12-20T09:06:36;13.10;;;9.55;;
5379;SDS011;2713;42.680;23.310;2022-12-20T09:09:03;12.20;;;8.90;;
5379;SDS011;2713;42.680;23.310;2022-12-20T09:11:31;11.55;;;7.68;;
5379;SDS011;2713;42.680;23.310;2022-12-20T09:13:59;17.17;;;8.88;;
5379;SDS011;2713;42.680;23.310;2022-12-20T09:16:27;44.55;;;25.92;;
5379;SDS011;2713;42.680;23.310;2022-12-20T09:18:56;10.32;;;8.20;;
5379;SDS011;2713;42.680;23.310;2022-12-20T09:21:24;10.02;;;7.75;;
5379;SDS011;2713;42.680;23.310;2022-12-20T09:23:51;11.25;;;8.13;;
5379;SDS011;2713;42.680;23.310;2022-12-20T09:26:20;10.93;;;8.57;;
5379;SDS011;2713;42.680;23.310;2022-12-20T09:28:48;9.75;;;8.13;;
5379;SDS011;2713;42.680;23.310;2022-12-20T09:31:18;12.65;;;8.23;;
5379;SDS011;2713;42.680;23.310;2022-12-20T09:33:46;13.20;;;8.85;;
5379;SDS011;2713;42.680;23.310;2022-12-20T09:36:14;11.23;;;8.35;;
5379;SDS011;2713;42.680;23.310;2022-12-20T09:38:42;11.18;;;7.75;;
5379;SDS011;2713;42.680;23.310;2022-12-20T09:41:15;12.45;;;8.70;;
5379;SDS011;2713;42.680;23.310;2022-12-20T09:43:48;11.40;;;8.50;;
5379;SDS011;2713;42.680;23.310;2022-12-20T09:46:16;12.32;;;8.40;;
5379;SDS011;2713;42.680;23.310;2022-12-20T09:48:43;10.60;;;7.75;;
5379;SDS011;2713;42.680;23.310;2022-12-20T09:51:14;10.73;;;7.97;;
5379;SDS011;2713;42.680;23.310;2022-12-20T09:53:54;10.32;;;7.85;;
5379;SDS011;2713;42.680;23.310;2022-12-20T09:56:30;12.05;;;8.52;;
5379;SDS011;2713;42.680;23.310;2022-12-20T09:59:01;9.48;;;7.78;;
5379;SDS011;2713;42.680;23.310;2022-12-20T10:01:32;11.85;;;8.40;;
5379;SDS011;2713;42.680;23.310;2022-12-20T10:04:02;13.20;;;8.80;;
5379;SDS011;2713;42.680;23.310;2022-12-20T10:06:38;10.52;;;8.38;;
5379;SDS011;2713;42.680;23.310;2022-12-20T10:09:12;11.63;;;8.27;;
5379;SDS011;2713;42.680;23.310;2022-12-20T10:11:58;12.45;;;9.13;;
5379;SDS011;2713;42.680;23.310;2022-12-20T10:14:43;12.63;;;9.55;;
5379;SDS011;2713;42.680;23.310;2022-12-20T10:17:25;12.98;;;8.70;;
5379;SDS011;2713;42.680;23.310;2022-12-20T10:20:03;15.15;;;8.55;;
5379;SDS011;2713;42.680;23.310;2022-12-20T10:22:45;10.23;;;8.32;;
5379;SDS011;2713;42.680;23.310;2022-12-20T10:25:18;8.73;;;7.40;;
5379;SDS011;2713;42.680;23.310;2022-12-20T10:27:47;10.73;;;7.90;;
5379;SDS011;2713;42.680;23.310;2022-12-20T10:30:17;15.55;;;9.70;;
5379;SDS011;2713;42.680;23.310;2022-12-20T10:32:48;14.88;;;8.98;;
5379;SDS011;2713;42.680;23.310;2022-12-20T10:35:23;11.57;;;7.72;;
5379;SDS011;2713;42.680;23.310;2022-12-20T10:37:57;11.40;;;8.60;;
5379;SDS011;2713;42.680;23.310;2022-12-20T10:40:26;9.07;;;8.10;;
5379;SDS011;2713;42.680;23.310;2022-12-20T10:42:55;11.90;;;8.90;;
5379;SDS011;2713;42.680;23.310;2022-12-20T10:45:26;9.57;;;7.75;;
5379;SDS011;2713;42.680;23.310;2022-12-20T10:48:01;14.77;;;9.35;;
5379;SDS011;2713;42.680;23.310;2022-12-20T10:50:30;11.60;;;8.18;;
5379;SDS011;2713;42.680;23.310;2022-12-20T10:56:07;10.05;;;7.80;;
5379;SDS011;2713;42.680;23.310;2022-12-20T10:58:42;13.98;;;8.10;;
5379;SDS011;2713;42.680;23.310;2022-12-20T11:01:17;12.13;;;7.72;;
5379;SDS011;2713;42.680;23.310;2022-12-20T11:03:50;9.77;;;7.40;;
5379;SDS011;2713;42.680;23.310;2022-12-20T11:06:19;10.85;;;6.95;;
5379;SDS011;2713;42.680;23.310;2022-12-20T11:08:48;10.60;;;8.00;;
5379;SDS011;2713;42.680;23.310;2022-12-20T11:11:16;10.40;;;7.10;;
5379;SDS011;2713;42.680;23.310;2022-12-20T11:13:44;7.85;;;6.72;;
5379;SDS011;2713;42.680;23.310;2022-12-20T11:16:22;14.73;;;7.68;;
5379;SDS011;2713;42.680;23.310;2022-12-20T11:18:55;9.55;;;7.28;;
5379;SDS011;2713;42.680;23.310;2022-12-20T11:21:30;8.80;;;6.88;;
5379;SDS011;2713;42.680;23.310;2022-12-20T11:24:06;12.45;;;6.55;;
5379;SDS011;2713;42.680;23.310;2022-12-20T11:26:41;8.75;;;6.60;;
5379;SDS011;2713;42.680;23.310;2022-12-20T11:29:27;9.27;;;6.60;;
5379;SDS011;2713;42.680;23.310;2022-12-20T11:32:07;7.47;;;6.35;;
5379;SDS011;2713;42.680;23.310;2022-12-20T11:34:46;8.52;;;6.93;;
5379;SDS011;2713;42.680;23.310;2022-12-20T11:37:21;8.20;;;6.30;;
5379;SDS011;2713;42.680;23.310;2022-12-20T11:39:54;7.47;;;5.85;;
5379;SDS011;2713;42.680;23.310;2022-12-20T11:42:35;11.00;;;7.25;;
5379;SDS011;2713;42.680;23.310;2022-12-20T11:45:19;14.23;;;6.70;;
5379;SDS011;2713;42.680;23.310;2022-12-20T11:47:59;9.48;;;6.43;;
5379;SDS011;2713;42.680;23.310;2022-12-20T11:50:41;9.05;;;6.50;;
5379;SDS011;2713;42.680;23.310;2022-12-20T11:53:15;9.98;;;6.60;;
5379;SDS011;2713;42.680;23.310;2022-12-20T11:55:48;10.13;;;6.95;;
5379;SDS011;2713;42.680;23.310;2022-12-20T11:58:19;6.45;;;5.70;;
5379;SDS011;2713;42.680;23.310;2022-12-20T12:00:53;8.50;;;6.30;;
5379;SDS011;2713;42.680;23.310;2022-12-20T12:03:26;10.40;;;7.40;;
5379;SDS011;2713;42.680;23.310;2022-12-20T12:06:00;8.15;;;6.30;;
5379;SDS011;2713;42.680;23.310;2022-12-20T12:08:31;8.13;;;6.45;;
5379;SDS011;2713;42.680;23.310;2022-12-20T12:11:05;8.85;;;6.13;;
5379;SDS011;2713;42.680;23.310;2022-12-20T12:13:39;10.68;;;6.88;;
5379;SDS011;2713;42.680;23.310;2022-12-20T12:16:07;9.77;;;6.82;;
5379;SDS011;2713;42.680;23.310;2022-12-20T12:18:37;8.80;;;6.38;;
5379;SDS011;2713;42.680;23.310;2022-12-20T12:21:09;8.88;;;6.95;;
5379;SDS011;2713;42.680;23.310;2022-12-20T12:23:45;14.27;;;6.97;;
5379;SDS011;2713;42.680;23.310;2022-12-20T12:26:20;7.38;;;6.00;;
5379;SDS011;2713;42.680;23.310;2022-12-20T12:28:52;7.10;;;5.80;;
5379;SDS011;2713;42.680;23.310;2022-12-20T12:31:22;9.77;;;6.30;;
5379;SDS011;2713;42.680;23.310;2022-12-20T12:33:59;6.95;;;6.15;;
5379;SDS011;2713;42.680;23.310;2022-12-20T12:39:47;8.18;;;6.95;;
5379;SDS011;2713;42.680;23.310;2022-12-20T12:42:36;11.30;;;7.43;;
5379;SDS011;2713;42.680;23.310;2022-12-20T12:45:25;8.10;;;6.80;;
5379;SDS011;2713;42.680;23.310;2022-12-20T12:47:55;6.90;;;5.72;;
5379;SDS011;2713;42.680;23.310;2022-12-20T12:50:26;9.60;;;6.40;;
5379;SDS011;2713;42.680;23.310;2022-12-20T12:52:59;7.47;;;6.13;;
5379;SDS011;2713;42.680;23.310;2022-12-20T12:55:39;6.35;;;5.38;;
5379;SDS011;2713;42.680;23.310;2022-12-20T12:58:28;7.18;;;6.00;;
5379;SDS011;2713;42.680;23.310;2022-12-20T13:00:56;8.55;;;6.00;;
5379;SDS011;2713;42.680;23.310;2022-12-20T13:09:34;6.75;;;5.68;;
5379;SDS011;2713;42.680;23.310;2022-12-20T13:18:22;16.70;;;7.78;;
5379;SDS011;2713;42.680;23.310;2022-12-20T13:23:58;8.15;;;5.68;;
5379;SDS011;2713;42.680;23.310;2022-12-20T13:27:13;5.80;;;4.95;;
5379;SDS011;2713;42.680;23.310;2022-12-20T13:29:52;8.25;;;5.22;;
5379;SDS011;2713;42.680;23.310;2022-12-20T13:35:28;8.15;;;6.03;;
5379;SDS011;2713;42.680;23.310;2022-12-20T13:37:58;7.85;;;6.05;;
5379;SDS011;2713;42.680;23.310;2022-12-20T13:40:31;14.73;;;5.60;;
5379;SDS011;2713;42.680;23.310;2022-12-20T13:43:03;5.45;;;4.95;;
5379;SDS011;2713;42.680;23.310;2022-12-20T13:45:33;5.20;;;4.70;;
5379;SDS011;2713;42.680;23.310;2022-12-20T13:48:01;5.67;;;4.90;;
5379;SDS011;2713;42.680;23.310;2022-12-20T13:50:31;9.00;;;6.60;;
5379;SDS011;2713;42.680;23.310;2022-12-20T13:53:04;13.25;;;7.90;;
5379;SDS011;2713;42.680;23.310;2022-12-20T13:55:40;10.40;;;8.27;;
5379;SDS011;2713;42.680;23.310;2022-12-20T13:58:14;11.20;;;8.27;;
5379;SDS011;2713;42.680;23.310;2022-12-20T14:00:43;13.68;;;8.88;;
5379;SDS011;2713;42.680;23.310;2022-12-20T14:03:18;10.10;;;8.77;;
5379;SDS011;2713;42.680;23.310;2022-12-20T14:05:47;12.30;;;9.10;;
5379;SDS011;2713;42.680;23.310;2022-12-20T14:08:18;14.98;;;9.15;;
5379;SDS011;2713;42.680;23.310;2022-12-20T14:10:48;10.88;;;8.52;;
5379;SDS011;2713;42.680;23.310;2022-12-20T14:13:22;13.57;;;8.52;;
5379;SDS011;2713;42.680;23.310;2022-12-20T14:15:50;13.90;;;8.63;;
5379;SDS011;2713;42.680;23.310;2022-12-20T14:18:19;10.38;;;7.70;;
5379;SDS011;2713;42.680;23.310;2022-12-20T14:20:48;11.43;;;7.85;;
5379;SDS011;2713;42.680;23.310;2022-12-20T14:23:19;12.40;;;8.75;;
5379;SDS011;2713;42.680;23.310;2022-12-20T14:25:49;15.15;;;9.43;;
5379;SDS011;2713;42.680;23.310;2022-12-20T14:28:21;11.60;;;8.40;;
5379;SDS011;2713;42.680;23.310;2022-12-20T14:30:57;13.02;;;9.05;;
5379;SDS011;2713;42.680;23.310;2022-12-20T14:33:27;12.45;;;9.35;;
5379;SDS011;2713;42.680;23.310;2022-12-20T14:35:56;14.80;;;9.80;;
5379;SDS011;2713;42.680;23.310;2022-12-20T14:38:27;13.98;;;9.50;;
5379;SDS011;2713;42.680;23.310;2022-12-20T14:40:55;16.00;;;9.82;;
5379;SDS011;2713;42.680;23.310;2022-12-20T14:43:24;13.77;;;9.45;;
5379;SDS011;2713;42.680;23.310;2022-12-20T14:46:12;13.85;;;9.40;;
5379;SDS011;2713;42.680;23.310;2022-12-20T14:48:43;19.20;;;10.18;;
5379;SDS011;2713;42.680;23.310;2022-12-20T14:51:10;13.60;;;8.88;;
5379;SDS011;2713;42.680;23.310;2022-12-20T14:53:38;17.17;;;8.45;;
5379;SDS011;2713;42.680;23.310;2022-12-20T14:56:11;11.20;;;7.07;;
5379;SDS011;2713;42.680;23.310;2022-12-20T14:58:40;7.55;;;5.97;;
5379;SDS011;2713;42.680;23.310;2022-12-20T15:01:16;8.15;;;5.65;;
5379;SDS011;2713;42.680;23.310;2022-12-20T15:03:49;8.27;;;6.03;;
5379;SDS011;2713;42.680;23.310;2022-12-20T15:06:29;9.95;;;5.75;;
5379;SDS011;2713;42.680;23.310;2022-12-20T15:08:58;5.90;;;5.30;;
5379;SDS011;2713;42.680;23.310;2022-12-20T15:11:25;7.82;;;5.80;;
5379;SDS011;2713;42.680;23.310;2022-12-20T15:13:52;8.45;;;5.75;;
5379;SDS011;2713;42.680;23.310;2022-12-20T15:16:22;8.55;;;5.93;;
5379;SDS011;2713;42.680;23.310;2022-12-20T15:18:51;11.07;;;6.43;;
5379;SDS011;2713;42.680;23.310;2022-12-20T15:21:22;8.32;;;6.13;;
5379;SDS011;2713;42.680;23.310;2022-12-20T15:23:54;9.23;;;5.65;;
5379;SDS011;2713;42.680;23.310;2022-12-20T15:26:23;8.45;;;5.20;;
5379;SDS011;2713;42.680;23.310;2022-12-20T15:28:51;7.50;;;5.25;;
5379;SDS011;2713;42.680;23.310;2022-12-20T15:31:18;6.00;;;5.22;;
5379;SDS011;2713;42.680;23.310;2022-12-20T15:33:50;6.75;;;5.15;;
5379;SDS011;2713;42.680;23.310;2022-12-20T15:36:19;7.57;;;5.90;;
5379;SDS011;2713;42.680;23.310;2022-12-20T15:38:47;10.02;;;6.38;;